< < Back
Terminal Aerodrome Forecast


Current Version              Previous Versions:   1  2  3  4  5  6  7  8  9  

Terminal Aerodrome Forecast

421
FTUS42 KFFC 240342 AAB
TAFATL
TAF AMD
KATL 240342Z 2404/2506 10007KT P6SM FEW250
     FM241200 11008KT P6SM SCT020
     FM241600 11009G16KT P6SM SCT035
     FM241900 11012G19KT P6SM SCT050
     FM250100 11010KT P6SM FEW050=

Latest METAR

370
SAUS70 KWBC 240500 RRE
MTRATL
METAR KATL 240452Z 11005KT 10SM SCT250 21/09 A3030 RMK AO2 SLP251
T02060089 402720156


USA.gov is the U.S. government's official web portal to all federal, state and local government web resources and services.